createdAt,value
2019-03-17T00:01:56.723Z,99531.95
2019-03-17T00:04:15.441Z,99530.05
2019-03-17T00:06:44.238Z,99526.80
2019-03-17T00:09:13.419Z,99520.25
2019-03-17T00:11:42.219Z,99516.72
2019-03-17T00:14:11.004Z,99514.06
2019-03-17T00:16:39.798Z,99507.36
2019-03-17T00:19:08.592Z,99510.00
2019-03-17T00:21:37.399Z,99495.26
2019-03-17T00:24:06.563Z,99489.63
2019-03-17T00:26:35.328Z,99493.19
2019-03-17T00:29:04.204Z,99491.88
2019-03-17T00:31:34.333Z,99489.83
2019-03-17T00:34:03.146Z,99489.34
2019-03-17T00:36:31.935Z,99483.70
2019-03-17T00:39:00.988Z,99467.27
2019-03-17T00:41:31.815Z,99466.89
2019-03-17T00:44:00.735Z,99462.12
2019-03-17T00:46:29.513Z,99456.44
2019-03-17T00:48:58.556Z,99451.42
2019-03-17T00:51:27.382Z,99456.09
2019-03-17T00:53:56.538Z,99449.92
2019-03-17T00:56:25.574Z,99440.09
2019-03-17T00:58:54.417Z,99442.59
2019-03-17T01:01:23.273Z,99445.72
2019-03-17T01:03:52.062Z,99439.92
2019-03-17T01:17:22.290Z,99418.30
2019-03-17T01:19:51.194Z,99418.13
2019-03-17T01:22:19.966Z,99396.28
2019-03-17T01:24:48.835Z,99396.63
2019-03-17T01:27:17.608Z,99390.55
2019-03-17T01:29:46.383Z,99389.69
2019-03-17T01:32:15.811Z,99385.80
2019-03-17T01:34:44.697Z,99381.14
2019-03-17T01:37:13.610Z,99397.63
2019-03-17T01:39:42.838Z,99383.95
2019-03-17T01:42:11.650Z,99378.58
2019-03-17T01:44:40.597Z,99373.39
2019-03-17T01:47:09.567Z,99387.98
2019-03-17T01:49:38.429Z,99371.20
2019-03-17T01:52:07.408Z,99376.11
2019-03-17T01:54:36.272Z,99369.95
2019-03-17T01:57:05.199Z,99365.30
2019-03-17T01:59:33.997Z,99366.13
2019-03-17T02:02:02.818Z,99353.98
2019-03-17T02:04:31.662Z,99358.42
2019-03-17T02:07:00.555Z,99346.55
2019-03-17T02:09:29.344Z,99348.56
2019-03-17T02:11:58.227Z,99340.73
2019-03-17T02:14:27.051Z,99334.34
2019-03-17T02:16:55.864Z,99327.88
2019-03-17T02:19:25.171Z,99328.30
2019-03-17T02:21:54.040Z,99327.23
2019-03-17T02:24:22.815Z,99330.28
2019-03-17T02:26:51.706Z,99325.52
2019-03-17T02:29:20.544Z,99314.79
2019-03-17T02:31:49.341Z,99313.30
2019-03-17T02:34:18.211Z,99308.88
2019-03-17T02:36:47.109Z,99313.81
2019-03-17T02:39:16.002Z,99304.47
2019-03-17T02:41:44.817Z,99303.14
2019-03-17T02:44:13.594Z,99304.05
2019-03-17T02:46:42.457Z,99299.77
2019-03-17T02:49:11.248Z,99298.10
2019-03-17T02:51:40.148Z,99300.09
2019-03-17T02:54:08.946Z,99291.41
2019-03-17T02:56:37.733Z,99291.27
2019-03-17T02:59:06.743Z,99286.91
2019-03-17T03:01:35.568Z,99285.36
2019-03-17T03:04:04.641Z,99282.02
2019-03-17T03:06:33.436Z,99280.49
2019-03-17T03:09:02.596Z,99277.51
2019-03-17T03:11:31.399Z,99265.66
2019-03-17T03:14:00.283Z,99268.98
2019-03-17T03:16:29.078Z,99258.70
2019-03-17T03:18:57.871Z,99268.13
2019-03-17T03:21:26.673Z,99264.45
2019-03-17T03:23:55.526Z,99275.60
2019-03-17T03:26:24.365Z,99263.66
2019-03-17T03:28:53.215Z,99265.77
2019-03-17T03:31:22.022Z,99258.09
2019-03-17T03:33:50.906Z,99248.85
2019-03-17T03:36:19.731Z,99251.14
2019-03-17T03:38:48.546Z,99238.87
2019-03-17T03:41:17.361Z,99243.11
2019-03-17T03:43:46.241Z,99245.59
2019-03-17T03:46:15.077Z,99243.39
2019-03-17T03:48:43.869Z,99237.31
2019-03-17T03:51:12.704Z,99242.53
2019-03-17T03:53:41.505Z,99240.59
2019-03-17T03:56:10.642Z,99231.28
2019-03-17T03:58:39.559Z,99232.98
2019-03-17T04:01:08.337Z,99232.20
2019-03-17T04:03:37.245Z,99217.78
2019-03-17T04:06:06.046Z,99229.31
2019-03-17T04:08:34.888Z,99231.02
2019-03-17T04:11:03.699Z,99224.25
2019-03-17T04:13:32.519Z,99221.47
2019-03-17T04:16:01.350Z,99216.86
2019-03-17T04:18:30.153Z,99228.04
2019-03-17T04:20:58.941Z,99216.52
2019-03-17T04:23:27.772Z,99211.30
2019-03-17T04:25:56.585Z,99210.82
2019-03-17T04:28:25.401Z,99210.09
2019-03-17T04:30:54.214Z,99201.14
2019-03-17T04:33:23.017Z,99198.50
2019-03-17T04:35:51.814Z,99207.39
2019-03-17T04:38:20.631Z,99198.78
2019-03-17T04:40:49.448Z,99204.47
2019-03-17T04:43:18.261Z,99191.97
2019-03-17T04:45:47.145Z,99188.80
2019-03-17T04:48:15.945Z,99188.28
2019-03-17T04:50:44.779Z,99182.31
2019-03-17T04:53:13.568Z,99182.38
2019-03-17T04:55:42.363Z,99165.81
2019-03-17T04:58:11.687Z,99171.44
2019-03-17T05:00:40.782Z,99174.61
2019-03-17T05:03:09.588Z,99168.66
2019-03-17T05:05:38.390Z,99181.02
2019-03-17T05:08:07.218Z,99179.08
2019-03-17T05:10:36.105Z,99174.03
2019-03-17T05:13:05.150Z,99177.02
2019-03-17T05:15:33.935Z,99170.97
2019-03-17T05:18:02.844Z,99167.29
2019-03-17T05:20:31.727Z,99173.55
2019-03-17T05:23:00.765Z,99178.05
2019-03-17T05:25:29.694Z,99172.26
2019-03-17T05:27:58.805Z,99180.56
2019-03-17T05:30:27.585Z,99170.78
2019-03-17T05:32:56.417Z,99178.00
2019-03-17T05:35:27.107Z,99181.68
2019-03-17T05:37:56.000Z,99180.41
2019-03-17T05:40:24.786Z,99184.95
2019-03-17T05:42:53.671Z,99188.66
2019-03-17T05:45:22.514Z,99190.75
2019-03-17T05:47:51.366Z,99188.50
2019-03-17T05:50:20.173Z,99191.28
2019-03-17T05:52:48.997Z,99190.97
2019-03-17T05:55:19.076Z,99191.04
2019-03-17T05:57:47.897Z,99188.05
2019-03-17T06:00:19.119Z,99187.16
2019-03-17T06:02:47.871Z,99203.14
2019-03-17T06:05:16.787Z,99190.38
2019-03-17T06:07:45.733Z,99201.78
2019-03-17T06:10:14.674Z,99191.38
2019-03-17T06:12:47.027Z,99190.67
2019-03-17T06:15:15.840Z,99195.95
2019-03-17T06:17:44.751Z,99189.70
2019-03-17T06:20:13.708Z,99184.78
2019-03-17T06:22:43.220Z,99191.38
2019-03-17T06:25:12.274Z,99188.46
2019-03-17T06:27:41.151Z,99188.73
2019-03-17T06:30:10.382Z,99183.59
2019-03-17T06:32:39.136Z,99191.30
2019-03-17T06:35:08.144Z,99183.98
2019-03-17T06:37:37.116Z,99184.95
2019-03-17T06:40:06.589Z,99186.27
2019-03-17T06:42:35.524Z,99187.16
2019-03-17T06:45:04.710Z,99182.12
2019-03-17T06:47:33.548Z,99196.89
2019-03-17T06:50:02.418Z,99199.26
2019-03-17T06:52:31.224Z,99201.33
2019-03-17T06:55:00.050Z,99202.78
2019-03-17T06:57:28.844Z,99255.50
2019-03-17T06:59:57.679Z,99283.92
2019-03-17T07:02:26.563Z,99284.14
2019-03-17T07:04:55.344Z,99292.98
2019-03-17T07:07:28.349Z,99306.42
2019-03-17T07:09:57.111Z,99310.52
2019-03-17T07:12:25.928Z,99301.06
2019-03-17T07:14:54.760Z,99309.89
2019-03-17T07:17:23.584Z,99310.79
2019-03-17T07:19:52.393Z,99332.11
2019-03-17T07:22:21.211Z,99332.75
2019-03-17T07:24:50.022Z,99333.97
2019-03-17T07:27:18.822Z,99329.72
2019-03-17T07:29:49.488Z,99344.47
2019-03-17T07:32:18.204Z,99345.24
2019-03-17T07:34:47.046Z,99351.81
2019-03-17T07:37:15.886Z,99355.31
2019-03-17T07:39:44.679Z,99359.32
2019-03-17T07:42:13.907Z,99373.36
2019-03-17T07:44:50.003Z,99375.77
2019-03-17T07:47:18.788Z,99394.59
2019-03-17T07:49:47.593Z,99398.02
2019-03-17T07:52:16.575Z,99394.86
2019-03-17T07:54:55.287Z,99400.75
2019-03-17T07:57:24.161Z,99399.44
2019-03-17T07:59:52.989Z,99410.21
2019-03-17T08:02:21.809Z,99402.58
2019-03-17T08:04:50.708Z,99413.36
2019-03-17T08:07:19.612Z,99415.90
2019-03-17T08:09:48.424Z,99402.78
2019-03-17T08:12:17.220Z,99406.95
2019-03-17T08:14:46.355Z,99403.27
2019-03-17T08:17:15.223Z,99404.22
2019-03-17T08:19:44.041Z,99417.09
2019-03-17T08:22:13.491Z,99423.59
2019-03-17T08:24:42.308Z,99424.50
2019-03-17T08:27:11.170Z,99424.52
2019-03-17T08:29:39.983Z,99422.57
2019-03-17T08:32:08.788Z,99436.56
2019-03-17T08:34:37.658Z,99438.95
2019-03-17T08:37:06.425Z,99447.00
2019-03-17T08:39:35.487Z,99456.60
2019-03-17T08:42:04.592Z,99453.50
2019-03-17T08:44:33.542Z,99465.80
2019-03-17T08:47:02.456Z,99467.13
2019-03-17T08:49:31.299Z,99469.48
2019-03-17T08:52:00.121Z,99471.94
2019-03-17T08:54:28.954Z,99462.98
2019-03-17T08:56:57.879Z,99463.62
2019-03-17T08:59:26.674Z,99471.50
2019-03-17T09:01:55.492Z,99485.50
2019-03-17T09:04:24.306Z,99497.45
2019-03-17T09:06:53.198Z,99501.88
2019-03-17T09:09:35.340Z,99513.10
2019-03-17T09:12:07.901Z,99518.75
2019-03-17T09:14:39.913Z,99513.56
2019-03-17T09:17:14.456Z,99501.80
2019-03-17T09:19:39.686Z,99507.89
2019-03-17T09:22:08.503Z,99513.08
2019-03-17T09:24:37.266Z,99518.38
2019-03-17T09:27:06.160Z,99515.64
2019-03-17T09:29:35.008Z,99520.85
2019-03-17T09:32:03.801Z,99531.76
2019-03-17T09:34:32.716Z,99539.41
2019-03-17T09:37:17.763Z,99539.54
2019-03-17T09:39:49.660Z,99535.90
2019-03-17T09:42:18.655Z,99539.53
2019-03-17T09:44:47.509Z,99538.59
2019-03-17T09:47:16.465Z,99531.34
2019-03-17T09:49:45.773Z,99549.05
2019-03-17T09:52:16.670Z,99545.53
2019-03-17T09:55:40.239Z,99545.45
2019-03-17T09:58:09.194Z,99554.83
2019-03-17T10:01:06.057Z,99550.05
2019-03-17T10:03:34.828Z,99557.45
2019-03-17T10:06:04.491Z,99560.38
2019-03-17T10:08:38.212Z,99542.83
2019-03-17T10:11:13.038Z,99565.47
2019-03-17T10:13:41.948Z,99561.15
2019-03-17T10:16:10.856Z,99564.20
2019-03-17T10:18:40.764Z,99567.90
2019-03-17T10:21:10.978Z,99562.59
2019-03-17T10:23:56.542Z,99558.53
2019-03-17T10:27:11.285Z,99574.11
2019-03-17T10:29:40.125Z,99573.77
2019-03-17T10:32:09.063Z,99583.88
2019-03-17T10:34:37.928Z,99572.11
2019-03-17T10:37:06.713Z,99575.13
2019-03-17T10:39:35.495Z,99574.69
2019-03-17T10:42:04.616Z,99588.21
2019-03-17T10:44:33.453Z,99598.41
2019-03-17T10:47:02.250Z,99584.91
2019-03-17T10:49:31.102Z,99600.73
2019-03-17T10:51:59.955Z,99597.99
2019-03-17T10:54:28.867Z,99603.53
2019-03-17T10:56:57.716Z,99603.81
2019-03-17T10:59:27.870Z,99604.56
2019-03-17T11:01:56.690Z,99600.86
2019-03-17T11:04:25.498Z,99604.02
2019-03-17T11:06:54.322Z,99615.02
2019-03-17T11:09:25.591Z,99611.67
2019-03-17T11:12:02.316Z,99630.53
2019-03-17T11:14:31.182Z,99624.02
2019-03-17T11:17:00.057Z,99632.12
2019-03-17T11:19:29.314Z,99629.02
2019-03-17T11:21:58.458Z,99635.99
2019-03-17T11:24:30.187Z,99636.50
2019-03-17T11:26:59.015Z,99618.40
2019-03-17T11:29:27.909Z,99619.36
2019-03-17T11:31:56.744Z,99630.86
2019-03-17T11:34:25.715Z,99629.88
2019-03-17T11:36:57.696Z,99631.62
2019-03-17T11:39:37.224Z,99642.97
2019-03-17T11:41:58.317Z,99654.22
2019-03-17T11:44:48.747Z,99650.87
2019-03-17T11:47:17.637Z,99648.81
2019-03-17T11:49:46.535Z,99643.31
2019-03-17T11:52:15.585Z,99638.11
2019-03-17T11:54:44.541Z,99637.15
2019-03-17T11:59:08.074Z,99630.52
2019-03-17T12:00:04.059Z,99634.20
2019-03-17T12:02:33.681Z,99653.33
2019-03-17T12:05:02.509Z,99664.55
2019-03-17T12:11:17.909Z,99671.89
2019-03-17T12:13:46.767Z,99670.63
2019-03-17T12:16:15.650Z,99668.59
2019-03-17T12:18:44.684Z,99663.70
2019-03-17T12:21:13.683Z,99663.56
2019-03-17T12:23:42.568Z,99658.33
2019-03-17T12:26:11.376Z,99666.80
2019-03-17T12:28:40.349Z,99675.28
2019-03-17T12:31:09.219Z,99684.09
2019-03-17T12:33:38.408Z,99687.90
2019-03-17T12:36:07.231Z,99686.31
2019-03-17T12:38:36.027Z,99688.17
2019-03-17T12:41:04.935Z,99684.25
2019-03-17T12:43:33.996Z,99691.70
2019-03-17T12:46:02.860Z,99692.54
2019-03-17T12:49:15.751Z,99687.41
2019-03-17T12:51:44.661Z,99696.00
2019-03-17T12:54:17.649Z,99697.14
2019-03-17T12:56:46.516Z,99694.22
2019-03-17T12:59:27.498Z,99687.41
2019-03-17T13:02:03.724Z,99689.25
2019-03-17T13:04:33.688Z,99677.53
2019-03-17T13:07:23.446Z,99682.33
2019-03-17T13:09:52.493Z,99674.66
2019-03-17T13:12:47.422Z,99677.86
2019-03-17T13:15:18.112Z,99671.88
2019-03-17T13:17:46.994Z,99678.57
2019-03-17T13:20:16.501Z,99683.02
2019-03-17T13:22:45.786Z,99673.92
2019-03-17T13:25:14.901Z,99706.89
2019-03-17T13:27:43.859Z,99693.70
2019-03-17T13:30:13.096Z,99708.08
2019-03-17T13:32:43.099Z,99727.56
2019-03-17T13:35:32.448Z,99726.73
2019-03-17T13:47:33.826Z,99761.75
2019-03-17T13:50:03.280Z,99744.45
2019-03-17T13:52:32.987Z,99738.30
2019-03-17T13:55:02.007Z,99743.23
2019-03-17T13:57:31.051Z,99744.52
2019-03-17T14:00:02.982Z,99735.43
2019-03-17T14:02:37.821Z,99736.38
2019-03-17T14:05:08.945Z,99733.52
2019-03-17T14:07:37.823Z,99748.45
2019-03-17T14:10:14.171Z,99749.48
2019-03-17T14:12:41.505Z,99744.94
2019-03-17T14:15:11.517Z,99753.02
2019-03-17T14:17:40.433Z,99759.34
2019-03-17T14:20:11.247Z,99754.50
2019-03-17T14:22:41.129Z,99752.36
2019-03-17T14:25:13.379Z,99759.79
2019-03-17T14:27:42.667Z,99770.38
2019-03-17T14:30:13.266Z,99770.87
2019-03-17T14:32:42.408Z,99769.09
2019-03-17T14:35:11.660Z,99783.58
2019-03-17T14:37:40.587Z,99782.77
2019-03-17T14:40:10.709Z,99802.28
2019-03-17T14:42:40.743Z,99827.60
2019-03-17T14:45:10.572Z,99846.41
2019-03-17T14:47:39.497Z,99851.11
2019-03-17T14:50:11.295Z,99840.48
2019-03-17T14:52:41.222Z,99864.55
2019-03-17T14:55:11.049Z,99857.17
2019-03-17T14:57:39.876Z,99861.75
2019-03-17T15:00:11.804Z,99856.67
2019-03-17T15:02:40.614Z,99868.27
2019-03-17T15:05:09.656Z,99870.19
2019-03-17T15:07:38.542Z,99867.89
2019-03-17T15:10:09.663Z,99855.94
2019-03-17T15:12:38.470Z,99852.02
2019-03-17T15:15:09.078Z,99849.95
2019-03-17T15:17:37.852Z,99858.91
2019-03-17T15:20:08.479Z,99854.05
2019-03-17T15:22:37.377Z,99860.94
2019-03-17T15:25:06.943Z,99866.53
2019-03-17T15:27:36.102Z,99872.50
2019-03-17T15:30:05.978Z,99869.03
2019-03-17T15:32:35.084Z,99879.25
2019-03-17T15:35:04.188Z,99885.38
2019-03-17T15:37:32.998Z,99889.08
2019-03-17T15:40:01.871Z,99889.81
2019-03-17T15:42:30.688Z,99908.14
2019-03-17T15:44:59.517Z,99913.57
2019-03-17T15:47:28.579Z,99909.89
2019-03-17T15:49:57.523Z,99916.84
2019-03-17T15:52:26.349Z,99915.91
2019-03-17T15:54:55.221Z,99921.02
2019-03-17T15:57:31.964Z,99919.26
2019-03-17T16:00:00.945Z,99903.58
2019-03-17T16:02:29.812Z,99902.34
2019-03-17T16:04:58.657Z,99898.34
2019-03-17T16:07:27.628Z,99921.02
2019-03-17T16:09:56.706Z,99925.91
2019-03-17T16:12:25.655Z,99928.41
2019-03-17T16:14:55.703Z,99937.00
2019-03-17T16:17:24.729Z,99945.84
2019-03-17T16:19:54.639Z,99957.06
2019-03-17T16:22:23.661Z,99953.83
2019-03-17T16:24:53.627Z,99956.48
2019-03-17T16:27:22.626Z,99919.81
2019-03-17T16:29:53.745Z,99952.17
2019-03-17T16:32:22.768Z,99958.73
2019-03-17T16:34:51.701Z,99960.81
2019-03-17T16:37:20.694Z,99975.48
2019-03-17T16:39:49.596Z,99979.03
2019-03-17T16:42:18.497Z,99971.98
2019-03-17T16:44:47.354Z,99983.02
2019-03-17T16:47:16.290Z,99981.69
2019-03-17T16:49:45.371Z,99987.52
2019-03-17T16:52:14.234Z,99984.31
2019-03-17T16:54:43.384Z,99986.18
2019-03-17T16:57:13.349Z,99972.76
2019-03-17T16:59:47.943Z,99983.82
2019-03-17T17:02:16.764Z,99986.36
2019-03-17T17:04:45.783Z,99995.03
2019-03-17T17:07:14.669Z,100002.15
2019-03-17T17:09:43.507Z,100016.11
2019-03-17T17:12:12.485Z,100007.45
2019-03-17T17:14:41.283Z,100012.34
2019-03-17T17:17:10.067Z,100017.59
2019-03-17T17:19:39.102Z,100026.23
2019-03-17T17:22:07.948Z,100020.95
2019-03-17T17:24:36.772Z,100019.00
2019-03-17T17:27:05.665Z,100028.47
2019-03-17T17:29:34.550Z,100027.36
2019-03-17T17:32:03.525Z,100027.70
2019-03-17T17:34:32.430Z,100035.02
2019-03-17T17:37:05.812Z,100037.48
2019-03-17T17:39:36.830Z,100048.43
2019-03-17T17:42:09.945Z,100041.58
2019-03-17T17:44:36.311Z,100045.91
2019-03-17T17:47:05.269Z,100051.83
2019-03-17T17:49:34.166Z,100049.48
2019-03-17T17:52:03.738Z,100052.94
2019-03-17T17:54:35.204Z,100059.23
2019-03-17T17:57:04.097Z,100057.55
2019-03-17T17:59:33.036Z,100067.28
2019-03-17T18:02:01.872Z,100065.80
2019-03-17T18:04:30.744Z,100074.25
2019-03-17T18:06:59.798Z,100074.62
2019-03-17T18:09:28.852Z,100080.05
2019-03-17T18:11:57.847Z,100087.73
2019-03-17T18:14:26.849Z,100079.73
2019-03-17T18:16:55.819Z,100083.68
2019-03-17T18:19:25.788Z,100082.02
2019-03-17T18:21:54.694Z,100092.33
2019-03-17T18:24:23.930Z,100093.92
2019-03-17T18:26:52.900Z,100098.98
2019-03-17T18:29:21.721Z,100107.70
2019-03-17T18:31:50.673Z,100103.11
2019-03-17T18:34:19.636Z,100104.99
2019-03-17T18:36:49.626Z,100095.80
2019-03-17T18:39:18.632Z,100095.41
2019-03-17T18:41:47.564Z,100102.72
2019-03-17T18:44:16.512Z,100088.27
2019-03-17T18:46:45.677Z,100089.88
2019-03-17T18:49:14.772Z,100089.95
2019-03-17T18:51:43.784Z,100098.77
2019-03-17T18:54:15.102Z,100098.78
2019-03-17T18:56:44.386Z,100105.30
2019-03-17T18:59:19.145Z,100107.59
2019-03-17T19:01:48.112Z,100117.79
2019-03-17T19:04:17.112Z,100114.90
2019-03-17T19:06:46.157Z,100113.57
2019-03-17T19:09:14.943Z,100124.36
2019-03-17T19:11:43.810Z,100135.17
2019-03-17T19:14:12.865Z,100131.92
2019-03-17T19:16:42.883Z,100136.83
2019-03-17T19:19:13.633Z,100139.45
2019-03-17T19:21:42.817Z,100137.89
2019-03-17T19:24:13.103Z,100138.80
2019-03-17T19:26:43.362Z,100133.55
2019-03-17T19:29:15.155Z,100139.17
2019-03-17T19:31:45.191Z,100139.30
2019-03-17T19:34:14.311Z,100141.61
2019-03-17T19:36:43.181Z,100148.73
2019-03-17T19:39:12.724Z,100136.17
2019-03-17T19:41:42.474Z,100139.70
2019-03-17T19:44:11.484Z,100142.58
2019-03-17T19:46:40.372Z,100141.45
2019-03-17T19:49:09.193Z,100138.20
2019-03-17T19:51:38.103Z,100155.09
2019-03-17T19:54:07.094Z,100155.78
2019-03-17T19:56:36.113Z,100164.42
2019-03-17T19:59:07.045Z,100166.44
2019-03-17T20:01:36.995Z,100152.48
2019-03-17T20:04:05.933Z,100155.52
2019-03-17T20:06:34.913Z,100152.06
2019-03-17T20:09:05.851Z,100158.28
2019-03-17T20:11:35.196Z,100155.80
2019-03-17T20:14:04.098Z,100164.09
2019-03-17T20:16:32.932Z,100161.98
2019-03-17T20:19:01.740Z,100165.81
2019-03-17T20:21:33.596Z,100157.77
2019-03-17T20:24:02.394Z,100167.25
2019-03-17T20:26:31.355Z,100159.30
2019-03-17T20:29:00.250Z,100169.78
2019-03-17T20:31:29.281Z,100168.17
2019-03-17T20:33:58.298Z,100169.22
2019-03-17T20:36:27.223Z,100165.56
2019-03-17T20:38:56.161Z,100171.27
2019-03-17T20:41:26.009Z,100167.83
2019-03-17T20:43:56.065Z,100166.49
2019-03-17T20:46:25.330Z,100160.81
2019-03-17T20:48:54.161Z,100161.69
2019-03-17T20:51:23.001Z,100166.52
2019-03-17T20:53:51.884Z,100172.61
2019-03-17T20:56:20.812Z,100167.45
2019-03-17T20:58:49.690Z,100168.67
2019-03-17T21:01:18.660Z,100176.69
2019-03-17T21:03:47.483Z,100159.09
2019-03-17T21:06:16.514Z,100171.23
2019-03-17T21:08:45.552Z,100172.55
2019-03-17T21:11:14.714Z,100171.38
2019-03-17T21:13:47.025Z,100168.81
2019-03-17T21:16:14.317Z,100174.81
2019-03-17T21:18:43.212Z,100182.80
2019-03-17T21:21:12.376Z,100171.53
2019-03-17T21:23:41.324Z,100171.53
2019-03-17T21:26:10.106Z,100178.02
2019-03-17T21:28:39.097Z,100166.84
2019-03-17T21:31:08.093Z,100168.38
2019-03-17T21:33:40.138Z,100168.11
2019-03-17T21:36:07.658Z,100177.58
2019-03-17T21:38:36.754Z,100170.88
2019-03-17T21:41:07.200Z,100154.61
2019-03-17T21:43:36.400Z,100169.23
2019-03-17T21:46:05.755Z,100176.35
2019-03-17T21:48:37.580Z,100170.47
2019-03-17T21:51:06.542Z,100177.28
2019-03-17T21:53:35.362Z,100171.15
2019-03-17T21:56:04.313Z,100174.82
2019-03-17T21:58:33.197Z,100177.97
2019-03-17T22:01:02.040Z,100164.22
2019-03-17T22:03:30.933Z,100180.06
2019-03-17T22:05:59.827Z,100170.67
2019-03-17T22:08:28.792Z,100171.59
2019-03-17T22:10:58.793Z,100174.42
2019-03-17T22:13:27.809Z,100170.84
2019-03-17T22:15:56.610Z,100170.42
2019-03-17T22:18:25.686Z,100165.98
2019-03-17T22:20:56.623Z,100159.25
2019-03-17T22:23:25.603Z,100157.12
2019-03-17T22:25:54.889Z,100161.44
2019-03-17T22:28:23.805Z,100165.67
2019-03-17T22:30:52.704Z,100165.20
2019-03-17T22:33:21.672Z,100164.83
2019-03-17T22:35:50.448Z,100172.59
2019-03-17T22:38:19.268Z,100169.22
2019-03-17T22:40:48.140Z,100182.00
2019-03-17T22:43:16.943Z,100181.33
2019-03-17T22:45:45.755Z,100170.15
2019-03-17T22:48:14.571Z,100175.68
2019-03-17T22:50:43.600Z,100174.92
2019-03-17T22:53:12.412Z,100192.20
2019-03-17T22:55:41.196Z,100189.63
2019-03-17T22:58:10.019Z,100196.63
2019-03-17T23:00:41.354Z,100187.87
2019-03-17T23:03:11.237Z,100206.66
2019-03-17T23:05:40.257Z,100208.48
2019-03-17T23:08:09.117Z,100202.50
2019-03-17T23:10:38.101Z,100195.31
2019-03-17T23:13:06.982Z,100198.72
2019-03-17T23:15:36.106Z,100192.84
2019-03-17T23:18:05.220Z,100193.31
2019-03-17T23:20:34.484Z,100197.52
2019-03-17T23:23:03.439Z,100205.39
2019-03-17T23:25:32.330Z,100215.66
2019-03-17T23:28:01.279Z,100212.10
2019-03-17T23:30:30.274Z,100206.39
2019-03-17T23:32:59.185Z,100214.17
2019-03-17T23:35:28.329Z,100213.66
2019-03-17T23:37:57.283Z,100214.55
2019-03-17T23:40:26.095Z,100222.05
2019-03-17T23:42:55.021Z,100232.23
2019-03-17T23:45:23.950Z,100238.48
2019-03-17T23:47:52.822Z,100234.31
2019-03-17T23:50:21.649Z,100237.56
2019-03-17T23:52:50.519Z,100237.31
2019-03-17T23:55:19.442Z,100239.77
2019-03-17T23:57:48.379Z,100241.55
